sensor_id;sensor_type;location;lat;lon;timestamp;P1;durP1;ratioP1;P2;durP2;ratioP2
74632;SDS011;63139;52.018;8.552;2023-11-22T00:02:00;7.93;;;5.30;;
74632;SDS011;63139;52.018;8.552;2023-11-22T00:04:28;12.05;;;6.40;;
74632;SDS011;63139;52.018;8.552;2023-11-22T00:06:55;9.60;;;5.65;;
74632;SDS011;63139;52.018;8.552;2023-11-22T00:09:23;9.18;;;5.45;;
74632;SDS011;63139;52.018;8.552;2023-11-22T00:11:51;11.38;;;6.18;;
74632;SDS011;63139;52.018;8.552;2023-11-22T00:14:20;10.18;;;6.00;;
74632;SDS011;63139;52.018;8.552;2023-11-22T00:16:49;10.40;;;6.38;;
74632;SDS011;63139;52.018;8.552;2023-11-22T00:19:17;13.25;;;6.40;;
74632;SDS011;63139;52.018;8.552;2023-11-22T00:21:48;11.70;;;6.30;;
74632;SDS011;63139;52.018;8.552;2023-11-22T00:24:16;10.82;;;6.20;;
74632;SDS011;63139;52.018;8.552;2023-11-22T00:26:44;10.68;;;5.65;;
74632;SDS011;63139;52.018;8.552;2023-11-22T00:29:12;11.40;;;5.90;;
74632;SDS011;63139;52.018;8.552;2023-11-22T00:31:42;8.68;;;5.35;;
74632;SDS011;63139;52.018;8.552;2023-11-22T00:34:11;12.05;;;5.78;;
74632;SDS011;63139;52.018;8.552;2023-11-22T00:36:40;9.70;;;6.28;;
74632;SDS011;63139;52.018;8.552;2023-11-22T00:39:08;8.38;;;5.30;;
74632;SDS011;63139;52.018;8.552;2023-11-22T00:41:39;13.85;;;6.32;;
74632;SDS011;63139;52.018;8.552;2023-11-22T00:44:07;9.80;;;5.82;;
74632;SDS011;63139;52.018;8.552;2023-11-22T00:46:35;11.05;;;5.90;;
74632;SDS011;63139;52.018;8.552;2023-11-22T00:49:06;10.65;;;5.97;;
74632;SDS011;63139;52.018;8.552;2023-11-22T00:51:34;8.77;;;5.38;;
74632;SDS011;63139;52.018;8.552;2023-11-22T00:54:02;9.45;;;5.25;;
74632;SDS011;63139;52.018;8.552;2023-11-22T00:56:31;10.30;;;5.47;;
74632;SDS011;63139;52.018;8.552;2023-11-22T00:59:00;9.48;;;5.97;;
74632;SDS011;63139;52.018;8.552;2023-11-22T01:01:30;10.38;;;5.97;;
74632;SDS011;63139;52.018;8.552;2023-11-22T01:03:58;8.63;;;5.85;;
74632;SDS011;63139;52.018;8.552;2023-11-22T01:06:28;7.40;;;4.90;;
74632;SDS011;63139;52.018;8.552;2023-11-22T01:08:56;8.50;;;5.00;;
74632;SDS011;63139;52.018;8.552;2023-11-22T01:11:24;6.57;;;4.60;;
74632;SDS011;63139;52.018;8.552;2023-11-22T01:13:52;7.68;;;4.65;;
74632;SDS011;63139;52.018;8.552;2023-11-22T01:16:20;9.57;;;4.97;;
74632;SDS011;63139;52.018;8.552;2023-11-22T01:18:49;6.28;;;4.15;;
74632;SDS011;63139;52.018;8.552;2023-11-22T01:21:16;7.47;;;4.72;;
74632;SDS011;63139;52.018;8.552;2023-11-22T01:23:47;7.22;;;4.55;;
74632;SDS011;63139;52.018;8.552;2023-11-22T01:26:14;7.35;;;4.45;;
74632;SDS011;63139;52.018;8.552;2023-11-22T01:28:43;8.65;;;5.60;;
74632;SDS011;63139;52.018;8.552;2023-11-22T01:31:11;10.68;;;5.88;;
74632;SDS011;63139;52.018;8.552;2023-11-22T01:33:40;10.18;;;5.55;;
74632;SDS011;63139;52.018;8.552;2023-11-22T01:36:08;8.27;;;5.10;;
74632;SDS011;63139;52.018;8.552;2023-11-22T01:38:36;7.35;;;4.82;;
74632;SDS011;63139;52.018;8.552;2023-11-22T01:41:07;7.20;;;4.55;;
74632;SDS011;63139;52.018;8.552;2023-11-22T01:43:34;10.13;;;4.82;;
74632;SDS011;63139;52.018;8.552;2023-11-22T01:46:06;8.65;;;5.18;;
74632;SDS011;63139;52.018;8.552;2023-11-22T01:48:34;9.98;;;5.28;;
74632;SDS011;63139;52.018;8.552;2023-11-22T01:51:03;12.20;;;6.32;;
74632;SDS011;63139;52.018;8.552;2023-11-22T01:53:31;10.43;;;5.78;;
74632;SDS011;63139;52.018;8.552;2023-11-22T01:56:00;10.15;;;6.00;;
74632;SDS011;63139;52.018;8.552;2023-11-22T01:58:30;9.07;;;4.45;;
74632;SDS011;63139;52.018;8.552;2023-11-22T02:00:58;11.18;;;6.05;;
74632;SDS011;63139;52.018;8.552;2023-11-22T02:03:27;9.35;;;5.78;;
74632;SDS011;63139;52.018;8.552;2023-11-22T02:05:56;9.18;;;5.15;;
74632;SDS011;63139;52.018;8.552;2023-11-22T02:08:25;10.85;;;5.97;;
74632;SDS011;63139;52.018;8.552;2023-11-22T02:10:57;7.82;;;4.93;;
74632;SDS011;63139;52.018;8.552;2023-11-22T02:13:29;9.70;;;5.18;;
74632;SDS011;63139;52.018;8.552;2023-11-22T02:15:57;8.32;;;4.45;;
74632;SDS011;63139;52.018;8.552;2023-11-22T02:18:28;11.90;;;5.20;;
74632;SDS011;63139;52.018;8.552;2023-11-22T02:20:57;8.68;;;5.20;;
74632;SDS011;63139;52.018;8.552;2023-11-22T02:23:27;11.38;;;6.05;;
74632;SDS011;63139;52.018;8.552;2023-11-22T02:25:55;10.20;;;5.47;;
74632;SDS011;63139;52.018;8.552;2023-11-22T02:28:22;12.75;;;5.30;;
74632;SDS011;63139;52.018;8.552;2023-11-22T02:30:50;12.43;;;6.10;;
74632;SDS011;63139;52.018;8.552;2023-11-22T02:33:18;11.18;;;6.05;;
74632;SDS011;63139;52.018;8.552;2023-11-22T02:35:46;10.85;;;5.47;;
74632;SDS011;63139;52.018;8.552;2023-11-22T02:38:14;8.60;;;4.38;;
74632;SDS011;63139;52.018;8.552;2023-11-22T02:40:45;11.07;;;5.28;;
74632;SDS011;63139;52.018;8.552;2023-11-22T02:43:13;8.68;;;4.80;;
74632;SDS011;63139;52.018;8.552;2023-11-22T02:45:41;8.85;;;5.30;;
74632;SDS011;63139;52.018;8.552;2023-11-22T02:48:11;14.40;;;6.53;;
74632;SDS011;63139;52.018;8.552;2023-11-22T02:50:39;13.77;;;6.10;;
74632;SDS011;63139;52.018;8.552;2023-11-22T02:53:10;11.15;;;5.75;;
74632;SDS011;63139;52.018;8.552;2023-11-22T02:55:38;9.45;;;5.63;;
74632;SDS011;63139;52.018;8.552;2023-11-22T02:58:07;13.00;;;6.43;;
74632;SDS011;63139;52.018;8.552;2023-11-22T03:00:35;10.63;;;5.38;;
74632;SDS011;63139;52.018;8.552;2023-11-22T03:03:03;12.18;;;6.80;;
74632;SDS011;63139;52.018;8.552;2023-11-22T03:05:35;12.88;;;6.90;;
74632;SDS011;63139;52.018;8.552;2023-11-22T03:08:03;9.43;;;4.95;;
74632;SDS011;63139;52.018;8.552;2023-11-22T03:10:33;10.00;;;4.97;;
74632;SDS011;63139;52.018;8.552;2023-11-22T03:13:01;9.07;;;5.10;;
74632;SDS011;63139;52.018;8.552;2023-11-22T03:15:32;11.98;;;5.93;;
74632;SDS011;63139;52.018;8.552;2023-11-22T03:17:59;8.55;;;4.88;;
74632;SDS011;63139;52.018;8.552;2023-11-22T03:20:27;11.13;;;5.50;;
74632;SDS011;63139;52.018;8.552;2023-11-22T03:22:57;14.60;;;5.85;;
74632;SDS011;63139;52.018;8.552;2023-11-22T03:25:27;8.48;;;5.43;;
74632;SDS011;63139;52.018;8.552;2023-11-22T03:27:55;9.80;;;5.75;;
74632;SDS011;63139;52.018;8.552;2023-11-22T03:30:23;8.48;;;5.05;;
74632;SDS011;63139;52.018;8.552;2023-11-22T03:32:52;9.65;;;5.07;;
74632;SDS011;63139;52.018;8.552;2023-11-22T03:35:20;10.25;;;5.43;;
74632;SDS011;63139;52.018;8.552;2023-11-22T03:37:48;9.13;;;5.20;;
74632;SDS011;63139;52.018;8.552;2023-11-22T03:40:16;11.25;;;5.82;;
74632;SDS011;63139;52.018;8.552;2023-11-22T03:42:44;9.30;;;4.88;;
74632;SDS011;63139;52.018;8.552;2023-11-22T03:45:13;9.27;;;4.88;;
74632;SDS011;63139;52.018;8.552;2023-11-22T03:47:41;11.95;;;5.80;;
74632;SDS011;63139;52.018;8.552;2023-11-22T03:50:10;8.77;;;5.15;;
74632;SDS011;63139;52.018;8.552;2023-11-22T03:52:38;10.15;;;5.72;;
74632;SDS011;63139;52.018;8.552;2023-11-22T03:55:06;8.43;;;4.60;;
74632;SDS011;63139;52.018;8.552;2023-11-22T03:57:35;12.00;;;5.57;;
74632;SDS011;63139;52.018;8.552;2023-11-22T04:00:03;8.88;;;4.72;;
74632;SDS011;63139;52.018;8.552;2023-11-22T04:02:37;7.22;;;4.40;;
74632;SDS011;63139;52.018;8.552;2023-11-22T04:05:06;7.88;;;4.80;;
74632;SDS011;63139;52.018;8.552;2023-11-22T04:07:35;10.02;;;5.32;;
74632;SDS011;63139;52.018;8.552;2023-11-22T04:10:04;11.15;;;5.22;;
74632;SDS011;63139;52.018;8.552;2023-11-22T04:12:33;7.00;;;4.53;;
74632;SDS011;63139;52.018;8.552;2023-11-22T04:15:02;9.68;;;5.57;;
74632;SDS011;63139;52.018;8.552;2023-11-22T04:17:35;15.13;;;6.57;;
74632;SDS011;63139;52.018;8.552;2023-11-22T04:20:05;10.45;;;5.18;;
74632;SDS011;63139;52.018;8.552;2023-11-22T04:22:37;9.70;;;5.10;;
74632;SDS011;63139;52.018;8.552;2023-11-22T04:25:05;13.95;;;5.90;;
74632;SDS011;63139;52.018;8.552;2023-11-22T04:27:35;9.40;;;5.40;;
74632;SDS011;63139;52.018;8.552;2023-11-22T04:30:04;13.50;;;5.65;;
74632;SDS011;63139;52.018;8.552;2023-11-22T04:32:35;12.05;;;5.88;;
74632;SDS011;63139;52.018;8.552;2023-11-22T04:35:04;8.30;;;4.95;;
74632;SDS011;63139;52.018;8.552;2023-11-22T04:37:32;11.63;;;5.93;;
74632;SDS011;63139;52.018;8.552;2023-11-22T04:40:01;9.00;;;5.18;;
74632;SDS011;63139;52.018;8.552;2023-11-22T04:42:34;10.50;;;5.38;;
74632;SDS011;63139;52.018;8.552;2023-11-22T04:45:02;12.32;;;6.13;;
74632;SDS011;63139;52.018;8.552;2023-11-22T04:47:32;10.90;;;6.10;;
74632;SDS011;63139;52.018;8.552;2023-11-22T04:50:00;9.30;;;5.20;;
74632;SDS011;63139;52.018;8.552;2023-11-22T04:52:28;15.40;;;6.43;;
74632;SDS011;63139;52.018;8.552;2023-11-22T04:54:58;9.13;;;5.40;;
74632;SDS011;63139;52.018;8.552;2023-11-22T04:57:27;12.23;;;6.25;;
74632;SDS011;63139;52.018;8.552;2023-11-22T04:59:55;13.25;;;6.45;;
74632;SDS011;63139;52.018;8.552;2023-11-22T05:02:23;12.10;;;5.72;;
74632;SDS011;63139;52.018;8.552;2023-11-22T05:04:53;11.55;;;5.95;;
74632;SDS011;63139;52.018;8.552;2023-11-22T05:07:20;9.00;;;5.10;;
74632;SDS011;63139;52.018;8.552;2023-11-22T05:09:48;13.73;;;6.00;;
74632;SDS011;63139;52.018;8.552;2023-11-22T05:12:17;11.27;;;5.43;;
74632;SDS011;63139;52.018;8.552;2023-11-22T05:14:46;12.52;;;6.25;;
74632;SDS011;63139;52.018;8.552;2023-11-22T05:17:14;10.20;;;5.55;;
74632;SDS011;63139;52.018;8.552;2023-11-22T05:19:42;13.30;;;6.25;;
74632;SDS011;63139;52.018;8.552;2023-11-22T05:22:09;12.52;;;6.55;;
74632;SDS011;63139;52.018;8.552;2023-11-22T05:24:37;13.50;;;6.07;;
74632;SDS011;63139;52.018;8.552;2023-11-22T05:27:07;15.00;;;6.80;;
74632;SDS011;63139;52.018;8.552;2023-11-22T05:29:35;11.75;;;5.60;;
74632;SDS011;63139;52.018;8.552;2023-11-22T05:32:16;11.50;;;5.75;;
74632;SDS011;63139;52.018;8.552;2023-11-22T05:34:44;11.95;;;5.40;;
74632;SDS011;63139;52.018;8.552;2023-11-22T05:37:12;11.30;;;5.93;;
74632;SDS011;63139;52.018;8.552;2023-11-22T05:39:40;13.35;;;6.72;;
74632;SDS011;63139;52.018;8.552;2023-11-22T05:42:08;14.23;;;7.07;;
74632;SDS011;63139;52.018;8.552;2023-11-22T05:44:35;11.07;;;6.70;;
74632;SDS011;63139;52.018;8.552;2023-11-22T05:47:03;11.98;;;6.60;;
74632;SDS011;63139;52.018;8.552;2023-11-22T05:49:33;10.35;;;6.18;;
74632;SDS011;63139;52.018;8.552;2023-11-22T05:52:01;14.98;;;6.65;;
74632;SDS011;63139;52.018;8.552;2023-11-22T05:54:29;17.10;;;6.72;;
74632;SDS011;63139;52.018;8.552;2023-11-22T05:56:58;13.88;;;6.70;;
74632;SDS011;63139;52.018;8.552;2023-11-22T05:59:26;10.93;;;6.10;;
74632;SDS011;63139;52.018;8.552;2023-11-22T06:01:53;16.00;;;7.03;;
74632;SDS011;63139;52.018;8.552;2023-11-22T06:04:22;10.68;;;6.18;;
74632;SDS011;63139;52.018;8.552;2023-11-22T06:06:52;14.65;;;6.78;;
74632;SDS011;63139;52.018;8.552;2023-11-22T06:09:19;14.77;;;7.05;;
74632;SDS011;63139;52.018;8.552;2023-11-22T06:11:49;12.45;;;6.07;;
74632;SDS011;63139;52.018;8.552;2023-11-22T06:14:17;13.13;;;7.00;;
74632;SDS011;63139;52.018;8.552;2023-11-22T06:16:45;16.75;;;6.57;;
74632;SDS011;63139;52.018;8.552;2023-11-22T06:19:13;10.35;;;5.60;;
74632;SDS011;63139;52.018;8.552;2023-11-22T06:21:41;14.13;;;6.93;;
74632;SDS011;63139;52.018;8.552;2023-11-22T06:24:10;13.23;;;6.53;;
74632;SDS011;63139;52.018;8.552;2023-11-22T06:26:42;14.68;;;7.43;;
74632;SDS011;63139;52.018;8.552;2023-11-22T06:29:10;12.93;;;6.68;;
74632;SDS011;63139;52.018;8.552;2023-11-22T06:31:38;12.27;;;6.32;;
74632;SDS011;63139;52.018;8.552;2023-11-22T06:34:06;12.73;;;7.00;;
74632;SDS011;63139;52.018;8.552;2023-11-22T06:36:34;11.43;;;6.18;;
74632;SDS011;63139;52.018;8.552;2023-11-22T06:39:02;10.68;;;6.00;;
74632;SDS011;63139;52.018;8.552;2023-11-22T06:41:33;13.02;;;6.10;;
74632;SDS011;63139;52.018;8.552;2023-11-22T06:44:00;14.23;;;7.38;;
74632;SDS011;63139;52.018;8.552;2023-11-22T06:46:29;10.73;;;6.20;;
74632;SDS011;63139;52.018;8.552;2023-11-22T06:48:58;13.57;;;7.90;;
74632;SDS011;63139;52.018;8.552;2023-11-22T06:51:26;15.55;;;7.28;;
74632;SDS011;63139;52.018;8.552;2023-11-22T06:53:53;15.88;;;8.95;;
74632;SDS011;63139;52.018;8.552;2023-11-22T06:56:24;13.23;;;6.78;;
74632;SDS011;63139;52.018;8.552;2023-11-22T06:58:53;13.05;;;7.03;;
74632;SDS011;63139;52.018;8.552;2023-11-22T07:01:22;18.60;;;8.30;;
74632;SDS011;63139;52.018;8.552;2023-11-22T07:03:52;12.55;;;7.10;;
74632;SDS011;63139;52.018;8.552;2023-11-22T07:06:20;13.77;;;7.07;;
74632;SDS011;63139;52.018;8.552;2023-11-22T07:08:48;16.05;;;7.70;;
74632;SDS011;63139;52.018;8.552;2023-11-22T07:11:23;16.73;;;7.80;;
74632;SDS011;63139;52.018;8.552;2023-11-22T07:13:53;15.60;;;7.55;;
74632;SDS011;63139;52.018;8.552;2023-11-22T07:16:21;18.52;;;8.63;;
74632;SDS011;63139;52.018;8.552;2023-11-22T07:18:48;17.63;;;8.40;;
74632;SDS011;63139;52.018;8.552;2023-11-22T07:21:16;16.23;;;7.95;;
74632;SDS011;63139;52.018;8.552;2023-11-22T07:23:45;16.35;;;8.15;;
74632;SDS011;63139;52.018;8.552;2023-11-22T07:26:16;15.10;;;7.97;;
74632;SDS011;63139;52.018;8.552;2023-11-22T07:28:45;18.52;;;9.27;;
74632;SDS011;63139;52.018;8.552;2023-11-22T07:31:14;13.93;;;7.85;;
74632;SDS011;63139;52.018;8.552;2023-11-22T07:33:43;17.23;;;8.82;;
74632;SDS011;63139;52.018;8.552;2023-11-22T07:36:10;15.88;;;8.38;;
74632;SDS011;63139;52.018;8.552;2023-11-22T07:38:40;15.20;;;8.48;;
74632;SDS011;63139;52.018;8.552;2023-11-22T07:41:10;22.23;;;10.23;;
74632;SDS011;63139;52.018;8.552;2023-11-22T07:43:38;16.00;;;8.48;;
74632;SDS011;63139;52.018;8.552;2023-11-22T07:46:06;19.73;;;9.35;;
74632;SDS011;63139;52.018;8.552;2023-11-22T07:48:41;15.90;;;8.10;;
74632;SDS011;63139;52.018;8.552;2023-11-22T07:51:09;18.58;;;8.15;;
74632;SDS011;63139;52.018;8.552;2023-11-22T07:53:37;18.70;;;9.25;;
74632;SDS011;63139;52.018;8.552;2023-11-22T07:56:07;16.17;;;8.50;;
74632;SDS011;63139;52.018;8.552;2023-11-22T07:58:35;15.80;;;8.68;;
74632;SDS011;63139;52.018;8.552;2023-11-22T08:01:03;18.85;;;10.02;;
74632;SDS011;63139;52.018;8.552;2023-11-22T08:03:32;16.58;;;9.10;;
74632;SDS011;63139;52.018;8.552;2023-11-22T08:06:03;14.60;;;7.65;;
74632;SDS011;63139;52.018;8.552;2023-11-22T08:08:31;13.57;;;7.97;;
74632;SDS011;63139;52.018;8.552;2023-11-22T08:11:01;16.77;;;8.85;;
74632;SDS011;63139;52.018;8.552;2023-11-22T08:13:30;15.13;;;8.00;;
74632;SDS011;63139;52.018;8.552;2023-11-22T08:15:58;15.77;;;8.25;;
74632;SDS011;63139;52.018;8.552;2023-11-22T08:18:26;16.02;;;9.15;;
74632;SDS011;63139;52.018;8.552;2023-11-22T08:20:54;14.13;;;8.55;;
74632;SDS011;63139;52.018;8.552;2023-11-22T08:23:24;12.93;;;7.40;;
74632;SDS011;63139;52.018;8.552;2023-11-22T08:25:53;13.77;;;7.97;;
74632;SDS011;63139;52.018;8.552;2023-11-22T08:28:23;14.60;;;7.60;;
74632;SDS011;63139;52.018;8.552;2023-11-22T08:30:52;15.45;;;8.38;;
74632;SDS011;63139;52.018;8.552;2023-11-22T08:33:20;14.13;;;7.78;;
74632;SDS011;63139;52.018;8.552;2023-11-22T08:35:48;16.55;;;8.93;;
74632;SDS011;63139;52.018;8.552;2023-11-22T08:38:18;11.30;;;7.55;;
74632;SDS011;63139;52.018;8.552;2023-11-22T08:40:48;10.98;;;7.15;;
74632;SDS011;63139;52.018;8.552;2023-11-22T08:43:16;14.07;;;8.55;;
74632;SDS011;63139;52.018;8.552;2023-11-22T08:45:49;12.50;;;8.00;;
74632;SDS011;63139;52.018;8.552;2023-11-22T08:48:29;11.45;;;7.57;;
74632;SDS011;63139;52.018;8.552;2023-11-22T08:50:57;10.75;;;7.13;;
74632;SDS011;63139;52.018;8.552;2023-11-22T08:53:27;11.88;;;7.35;;
74632;SDS011;63139;52.018;8.552;2023-11-22T08:55:58;12.13;;;6.80;;
74632;SDS011;63139;52.018;8.552;2023-11-22T08:58:25;9.32;;;6.43;;
74632;SDS011;63139;52.018;8.552;2023-11-22T09:00:53;11.90;;;5.78;;
74632;SDS011;63139;52.018;8.552;2023-11-22T09:03:24;10.38;;;6.50;;
74632;SDS011;63139;52.018;8.552;2023-11-22T09:05:52;11.45;;;7.30;;
74632;SDS011;63139;52.018;8.552;2023-11-22T09:08:20;13.55;;;7.30;;
74632;SDS011;63139;52.018;8.552;2023-11-22T09:10:53;11.05;;;6.60;;
74632;SDS011;63139;52.018;8.552;2023-11-22T09:13:22;8.50;;;5.70;;
74632;SDS011;63139;52.018;8.552;2023-11-22T09:15:51;12.27;;;6.45;;
74632;SDS011;63139;52.018;8.552;2023-11-22T09:18:19;11.23;;;6.60;;
74632;SDS011;63139;52.018;8.552;2023-11-22T09:20:48;9.13;;;5.72;;
74632;SDS011;63139;52.018;8.552;2023-11-22T09:23:16;8.43;;;5.68;;
74632;SDS011;63139;52.018;8.552;2023-11-22T09:25:43;12.07;;;6.55;;
74632;SDS011;63139;52.018;8.552;2023-11-22T09:28:12;8.98;;;6.13;;
74632;SDS011;63139;52.018;8.552;2023-11-22T09:30:43;9.25;;;5.13;;
74632;SDS011;63139;52.018;8.552;2023-11-22T09:33:12;6.38;;;4.15;;
74632;SDS011;63139;52.018;8.552;2023-11-22T09:35:42;8.98;;;5.88;;
74632;SDS011;63139;52.018;8.552;2023-11-22T09:38:12;9.60;;;5.97;;
74632;SDS011;63139;52.018;8.552;2023-11-22T09:40:41;9.38;;;6.05;;
74632;SDS011;63139;52.018;8.552;2023-11-22T09:43:10;7.20;;;5.32;;
74632;SDS011;63139;52.018;8.552;2023-11-22T09:45:37;10.75;;;5.22;;
74632;SDS011;63139;52.018;8.552;2023-11-22T09:48:07;17.15;;;5.38;;
74632;SDS011;63139;52.018;8.552;2023-11-22T09:50:44;9.60;;;5.65;;
74632;SDS011;63139;52.018;8.552;2023-11-22T09:53:19;7.32;;;4.72;;
74632;SDS011;63139;52.018;8.552;2023-11-22T09:55:53;7.28;;;4.88;;
74632;SDS011;63139;52.018;8.552;2023-11-22T09:58:21;10.10;;;5.28;;
74632;SDS011;63139;52.018;8.552;2023-11-22T10:00:48;6.25;;;4.72;;
74632;SDS011;63139;52.018;8.552;2023-11-22T10:03:20;6.63;;;4.95;;
74632;SDS011;63139;52.018;8.552;2023-11-22T10:05:48;7.45;;;4.50;;
74632;SDS011;63139;52.018;8.552;2023-11-22T10:08:15;7.10;;;4.30;;
74632;SDS011;63139;52.018;8.552;2023-11-22T10:10:45;7.53;;;5.00;;
74632;SDS011;63139;52.018;8.552;2023-11-22T10:13:14;8.23;;;5.30;;
74632;SDS011;63139;52.018;8.552;2023-11-22T10:15:42;7.97;;;4.90;;
74632;SDS011;63139;52.018;8.552;2023-11-22T10:18:10;7.07;;;4.63;;
74632;SDS011;63139;52.018;8.552;2023-11-22T10:20:40;5.88;;;4.47;;
74632;SDS011;63139;52.018;8.552;2023-11-22T10:23:09;8.10;;;5.18;;
74632;SDS011;63139;52.018;8.552;2023-11-22T10:25:43;7.35;;;4.75;;
74632;SDS011;63139;52.018;8.552;2023-11-22T10:28:11;8.60;;;4.70;;
74632;SDS011;63139;52.018;8.552;2023-11-22T10:30:39;6.43;;;4.28;;
74632;SDS011;63139;52.018;8.552;2023-11-22T10:33:09;5.82;;;3.90;;
74632;SDS011;63139;52.018;8.552;2023-11-22T10:35:43;4.43;;;3.03;;
74632;SDS011;63139;52.018;8.552;2023-11-22T10:38:13;5.22;;;3.08;;
74632;SDS011;63139;52.018;8.552;2023-11-22T10:40:42;5.88;;;2.70;;
74632;SDS011;63139;52.018;8.552;2023-11-22T10:43:12;4.25;;;2.88;;
74632;SDS011;63139;52.018;8.552;2023-11-22T10:45:40;5.78;;;3.65;;
74632;SDS011;63139;52.018;8.552;2023-11-22T10:48:13;6.72;;;3.50;;
74632;SDS011;63139;52.018;8.552;2023-11-22T10:50:44;6.13;;;3.60;;
74632;SDS011;63139;52.018;8.552;2023-11-22T10:53:15;4.45;;;3.08;;
74632;SDS011;63139;52.018;8.552;2023-11-22T10:55:44;4.65;;;2.55;;
74632;SDS011;63139;52.018;8.552;2023-11-22T10:58:13;3.28;;;2.55;;
74632;SDS011;63139;52.018;8.552;2023-11-22T11:00:42;4.18;;;2.60;;
74632;SDS011;63139;52.018;8.552;2023-11-22T11:03:11;3.67;;;2.58;;
74632;SDS011;63139;52.018;8.552;2023-11-22T11:05:44;4.38;;;2.25;;
74632;SDS011;63139;52.018;8.552;2023-11-22T11:08:18;4.18;;;2.90;;
74632;SDS011;63139;52.018;8.552;2023-11-22T11:10:48;3.13;;;2.38;;
74632;SDS011;63139;52.018;8.552;2023-11-22T11:13:16;2.90;;;2.60;;
74632;SDS011;63139;52.018;8.552;2023-11-22T11:15:44;3.55;;;2.50;;
74632;SDS011;63139;52.018;8.552;2023-11-22T11:18:14;5.70;;;2.85;;
74632;SDS011;63139;52.018;8.552;2023-11-22T11:20:49;3.78;;;2.78;;
74632;SDS011;63139;52.018;8.552;2023-11-22T11:23:18;6.13;;;2.40;;
74632;SDS011;63139;52.018;8.552;2023-11-22T11:25:47;6.30;;;2.70;;
74632;SDS011;63139;52.018;8.552;2023-11-22T11:28:15;3.28;;;2.40;;
74632;SDS011;63139;52.018;8.552;2023-11-22T11:30:45;6.90;;;3.63;;
74632;SDS011;63139;52.018;8.552;2023-11-22T11:33:15;4.10;;;3.10;;
74632;SDS011;63139;52.018;8.552;2023-11-22T11:35:46;3.65;;;2.65;;
74632;SDS011;63139;52.018;8.552;2023-11-22T11:38:17;4.07;;;2.58;;
74632;SDS011;63139;52.018;8.552;2023-11-22T11:40:48;5.43;;;3.15;;
74632;SDS011;63139;52.018;8.552;2023-11-22T11:43:20;4.47;;;2.72;;
74632;SDS011;63139;52.018;8.552;2023-11-22T11:45:48;5.32;;;3.10;;
74632;SDS011;63139;52.018;8.552;2023-11-22T11:48:16;4.28;;;2.90;;
74632;SDS011;63139;52.018;8.552;2023-11-22T11:50:46;4.60;;;3.00;;
74632;SDS011;63139;52.018;8.552;2023-11-22T11:53:19;4.20;;;2.78;;
74632;SDS011;63139;52.018;8.552;2023-11-22T11:55:47;4.47;;;2.53;;
74632;SDS011;63139;52.018;8.552;2023-11-22T11:58:18;4.65;;;2.58;;
74632;SDS011;63139;52.018;8.552;2023-11-22T12:00:46;3.35;;;2.47;;
74632;SDS011;63139;52.018;8.552;2023-11-22T12:03:13;3.67;;;2.45;;
74632;SDS011;63139;52.018;8.552;2023-11-22T12:05:47;5.30;;;3.10;;
74632;SDS011;63139;52.018;8.552;2023-11-22T12:08:16;3.92;;;2.63;;
74632;SDS011;63139;52.018;8.552;2023-11-22T12:10:46;4.07;;;2.58;;
74632;SDS011;63139;52.018;8.552;2023-11-22T12:13:16;3.80;;;2.40;;
74632;SDS011;63139;52.018;8.552;2023-11-22T12:15:45;3.47;;;2.50;;
74632;SDS011;63139;52.018;8.552;2023-11-22T12:18:14;3.78;;;2.92;;
74632;SDS011;63139;52.018;8.552;2023-11-22T12:20:42;6.30;;;2.53;;
74632;SDS011;63139;52.018;8.552;2023-11-22T12:23:22;2.75;;;2.22;;
74632;SDS011;63139;52.018;8.552;2023-11-22T12:25:56;3.17;;;2.30;;
74632;SDS011;63139;52.018;8.552;2023-11-22T12:28:24;3.28;;;2.35;;
74632;SDS011;63139;52.018;8.552;2023-11-22T12:30:54;3.05;;;2.28;;
74632;SDS011;63139;52.018;8.552;2023-11-22T12:33:22;2.75;;;2.33;;
74632;SDS011;63139;52.018;8.552;2023-11-22T12:35:50;3.55;;;2.67;;
74632;SDS011;63139;52.018;8.552;2023-11-22T12:38:20;2.20;;;2.00;;
74632;SDS011;63139;52.018;8.552;2023-11-22T12:40:48;2.60;;;2.10;;
74632;SDS011;63139;52.018;8.552;2023-11-22T12:43:17;3.60;;;2.65;;
74632;SDS011;63139;52.018;8.552;2023-11-22T12:45:45;2.63;;;2.08;;
74632;SDS011;63139;52.018;8.552;2023-11-22T12:48:19;3.28;;;2.22;;
74632;SDS011;63139;52.018;8.552;2023-11-22T12:50:48;2.72;;;2.00;;
74632;SDS011;63139;52.018;8.552;2023-11-22T12:53:17;2.15;;;1.80;;
74632;SDS011;63139;52.018;8.552;2023-11-22T12:55:48;2.85;;;1.98;;
74632;SDS011;63139;52.018;8.552;2023-11-22T12:58:19;2.53;;;1.90;;
74632;SDS011;63139;52.018;8.552;2023-11-22T13:00:48;3.88;;;1.83;;
74632;SDS011;63139;52.018;8.552;2023-11-22T13:03:16;4.03;;;2.00;;
74632;SDS011;63139;52.018;8.552;2023-11-22T13:05:44;4.32;;;2.70;;
74632;SDS011;63139;52.018;8.552;2023-11-22T13:08:14;4.88;;;2.13;;
74632;SDS011;63139;52.018;8.552;2023-11-22T13:10:43;3.55;;;2.25;;
74632;SDS011;63139;52.018;8.552;2023-11-22T13:13:12;3.88;;;2.20;;
74632;SDS011;63139;52.018;8.552;2023-11-22T13:15:41;2.80;;;2.15;;
74632;SDS011;63139;52.018;8.552;2023-11-22T13:18:09;2.85;;;2.10;;
74632;SDS011;63139;52.018;8.552;2023-11-22T13:20:38;2.88;;;2.00;;
74632;SDS011;63139;52.018;8.552;2023-11-22T13:23:07;4.13;;;2.30;;
74632;SDS011;63139;52.018;8.552;2023-11-22T13:25:35;3.10;;;2.10;;
74632;SDS011;63139;52.018;8.552;2023-11-22T13:28:03;2.72;;;2.20;;
74632;SDS011;63139;52.018;8.552;2023-11-22T13:30:32;2.72;;;2.00;;
74632;SDS011;63139;52.018;8.552;2023-11-22T13:33:01;4.25;;;2.35;;
74632;SDS011;63139;52.018;8.552;2023-11-22T13:35:29;2.95;;;2.25;;
74632;SDS011;63139;52.018;8.552;2023-11-22T13:37:58;2.67;;;1.85;;
74632;SDS011;63139;52.018;8.552;2023-11-22T13:40:28;4.13;;;2.13;;
74632;SDS011;63139;52.018;8.552;2023-11-22T13:42:57;2.85;;;2.20;;
74632;SDS011;63139;52.018;8.552;2023-11-22T13:45:25;4.38;;;2.33;;
74632;SDS011;63139;52.018;8.552;2023-11-22T13:47:54;3.45;;;2.35;;
74632;SDS011;63139;52.018;8.552;2023-11-22T13:50:26;2.83;;;2.13;;
74632;SDS011;63139;52.018;8.552;2023-11-22T13:52:54;3.28;;;2.40;;
74632;SDS011;63139;52.018;8.552;2023-11-22T13:55:23;5.32;;;3.17;;
74632;SDS011;63139;52.018;8.552;2023-11-22T13:57:52;4.47;;;3.00;;
74632;SDS011;63139;52.018;8.552;2023-11-22T14:00:21;4.15;;;3.10;;
74632;SDS011;63139;52.018;8.552;2023-11-22T14:02:51;3.97;;;3.08;;
74632;SDS011;63139;52.018;8.552;2023-11-22T14:05:22;5.65;;;3.40;;
74632;SDS011;63139;52.018;8.552;2023-11-22T14:07:52;5.97;;;2.90;;
74632;SDS011;63139;52.018;8.552;2023-11-22T14:10:21;3.75;;;2.88;;
74632;SDS011;63139;52.018;8.552;2023-11-22T14:12:49;5.05;;;3.35;;
74632;SDS011;63139;52.018;8.552;2023-11-22T14:15:17;5.97;;;3.30;;
74632;SDS011;63139;52.018;8.552;2023-11-22T14:17:46;5.25;;;3.92;;
74632;SDS011;63139;52.018;8.552;2023-11-22T14:20:17;8.30;;;4.55;;
74632;SDS011;63139;52.018;8.552;2023-11-22T14:22:47;6.18;;;3.78;;
74632;SDS011;63139;52.018;8.552;2023-11-22T14:25:16;6.55;;;3.97;;
74632;SDS011;63139;52.018;8.552;2023-11-22T14:27:45;5.95;;;3.80;;
74632;SDS011;63139;52.018;8.552;2023-11-22T14:30:14;7.47;;;3.70;;
74632;SDS011;63139;52.018;8.552;2023-11-22T14:32:43;6.53;;;4.07;;
74632;SDS011;63139;52.018;8.552;2023-11-22T14:35:11;4.78;;;3.42;;
74632;SDS011;63139;52.018;8.552;2023-11-22T14:37:39;6.35;;;4.25;;
74632;SDS011;63139;52.018;8.552;2023-11-22T14:40:09;6.18;;;4.10;;
74632;SDS011;63139;52.018;8.552;2023-11-22T14:42:41;6.63;;;4.22;;
74632;SDS011;63139;52.018;8.552;2023-11-22T14:45:11;7.22;;;4.22;;
74632;SDS011;63139;52.018;8.552;2023-11-22T14:47:39;6.97;;;4.18;;
74632;SDS011;63139;52.018;8.552;2023-11-22T14:50:09;5.82;;;3.80;;
74632;SDS011;63139;52.018;8.552;2023-11-22T14:52:38;5.63;;;3.72;;